Latest Weather Observations for Noonamah

IDD60901

Issued at 2:01 pm CST Sunday 5 July 2015 (issued every 10 minutes, with the page automatically refreshed every 10 minutes)

About weather observations | Map of Darwin area stations | Latest observations for Darwin area | Other Formats
Station Details ID: 014314 Name: NOONAMAH AIRSTRIP Lat: -12.61 Lon: 131.05 Height: 17.5 m
Data from the previous 72 hours. | See also: Recent months for locations in Northern Territory
Date/Time
CST
Tmp

°C
App
Tmp
°C
Dew
Point
°C
Rel
Hum
%
Delta-T

°C
Wind Press
QNH
hPa
Press
MSL
hPa
Rain
since
9 am
mm
Dir
 
Spd
km/h
Gust
km/h
Spd
kts
Gust
kts
05/02:00pm 30.1 30.2 13.8 37 9.8 ENE 6 11 3 6 1012.3 1012.2 0.0
05/01:30pm 29.8 29.2 13.5 36 9.7 ESE 9 19 5 10 1012.7 1012.6 0.0
05/01:00pm 29.4 29.1 14.4 40 9.1 ENE 9 17 5 9 1013.2 1013.1 0.0
05/12:30pm 28.7 28.8 14.5 42 8.6 SE 7 17 4 9 1013.7 1013.6 0.0
05/12:00pm 28.0 28.0 13.5 41 8.6 ENE 6 11 3 6 1014.2 1014.1 0.0
05/11:30am 27.4 26.8 12.2 39 8.8 NE 7 13 4 7 1014.7 1014.6 0.0
05/11:00am 27.5 25.5 11.5 37 9.2 E 13 19 7 10 1014.9 1014.8 0.0
05/10:30am 26.1 24.5 10.3 37 8.8 SE 9 15 5 8 1015.0 1014.9 0.0
05/10:00am 25.0 23.3 9.7 38 8.4 ESE 9 15 5 8 1015.1 1015.0 0.0
05/09:30am 23.5 21.1 9.9 42 7.4 SE 13 20 7 11 1015.2 1015.1 0.0
05/09:00am 20.9 20.0 11.3 54 5.3 SSE 7 11 4 6 1015.2 1015.1 0.0
05/08:30am 19.2 19.0 11.7 62 4.1 SSE 4 9 2 5 1015.1 1015.0 0.0
05/08:00am 15.8 16.8 14.2 90 0.9 SSE 2 4 1 2 1014.9 1014.8 0.0
05/07:30am 13.4 14.1 12.1 92 0.7 CALM 0 0 0 0 1014.6 1014.5 0.0
05/07:00am 13.2 13.5 12.1 93 0.6 E 2 2 1 1 1014.3 1014.2 0.0
05/06:30am 13.1 13.6 11.5 90 0.8 CALM 0 0 0 0 1014.0 1013.9 0.0
05/06:00am 13.9 14.7 12.5 91 0.8 CALM 0 0 0 0 1013.6 1013.5 0.0
05/05:30am 14.4 14.7 13.3 93 0.6 SSW 4 6 2 3 1013.2 1013.1 0.0
05/05:00am 14.6 15.6 13.3 92 0.7 CALM 0 0 0 0 1013.2 1013.1 0.0
05/04:30am 14.7 15.8 13.4 92 0.7 CALM 0 0 0 0 1013.1 1013.0 0.0
05/04:00am 14.5 15.5 13.2 92 0.7 CALM 0 0 0 0 1013.0 1012.9 0.0
05/03:30am 14.2 14.6 12.4 89 1.0 NE 2 4 1 2 1012.9 1012.8 0.0
05/03:00am 14.6 15.4 12.5 87 1.1 CALM 0 0 0 0 1013.0 1012.9 0.0
05/02:30am 15.3 15.6 13.3 88 1.1 SSE 4 6 2 3 1012.9 1012.8 0.0
05/02:00am 15.6 16.6 13.3 86 1.3 CALM 0 0 0 0 1013.1 1013.0 0.0
05/01:30am 15.8 16.8 13.3 85 1.4 CALM 0 0 0 0 1013.2 1013.1 0.0
05/01:00am 16.1 17.0 13.0 82 1.7 CALM 0 0 0 0 1013.4 1013.3 0.0
05/12:30am 16.8 17.9 13.5 81 1.9 CALM 0 0 0 0 1013.3 1013.2 0.0
05/12:00am 17.2 18.5 14.1 82 1.8 CALM 0 0 0 0 1013.4 1013.3 0.0
 
Date/Time
CST
Tmp

°C
App
Tmp
°C
Dew
Point
°C
Rel
Hum
%
Delta-T

°C
Wind Press
QNH
hPa
Press
MSL
hPa
Rain
since
9 am
mm
Dir
 
Spd
km/h
Gust
km/h
Spd
kts
Gust
kts
04/11:30pm 17.7 18.8 13.6 77 2.3 CALM 0 0 0 0 1013.5 1013.4 0.0
04/11:00pm 18.2 19.4 13.7 75 2.6 CALM 0 0 0 0 1013.6 1013.5 0.0
04/10:30pm 19.0 20.1 14.5 75 2.6 E 2 4 1 2 1013.7 1013.6 0.0
04/10:00pm 19.4 20.9 14.6 74 2.8 CALM 0 0 0 0 1013.7 1013.6 0.0
04/09:30pm 20.2 21.6 14.3 69 3.4 CALM 0 0 0 0 1013.6 1013.5 0.0
04/09:00pm 21.3 22.9 14.9 67 3.8 CALM 0 4 0 2 1013.4 1013.3 0.0
04/08:30pm 22.1 23.0 15.0 64 4.2 NW 4 6 2 3 1012.9 1012.8 0.0
04/08:00pm 23.6 24.6 15.4 60 4.9 WNW 4 4 2 2 1012.6 1012.5 0.0
04/07:30pm 24.3 24.9 15.2 57 5.5 NW 6 9 3 5 1012.2 1012.1 0.0
04/07:00pm 25.4 25.2 14.8 52 6.3 WNW 9 17 5 9 1011.7 1011.6 0.0
04/06:30pm 27.1 26.4 13.1 42 8.2 W 9 17 5 9 1011.3 1011.2 0.0
04/06:00pm 30.3 28.2 5.6 21 13.0 S 6 7 3 4 1010.6 1010.5 0.0
04/05:30pm 31.0 28.1 4.7 19 13.7 S 9 17 5 9 1010.3 1010.2 0.0
04/05:00pm 31.6 28.3 4.4 18 14.1 SSE 11 19 6 10 1010.1 1010.0 0.0
04/04:30pm 31.8 28.0 3.8 17 14.5 SSE 13 22 7 12 1010.1 1010.0 0.0
04/04:00pm 31.9 28.1 3.8 17 14.5 SSW 13 26 7 14 1010.1 1010.0 0.0
04/03:30pm 31.9 28.3 3.0 16 14.7 S 11 19 6 10 1010.3 1010.2 0.0
04/03:00pm 32.3 28.0 3.3 16 14.9 S 15 35 8 19 1010.6 1010.5 0.0
04/02:30pm 32.3 28.2 4.2 17 14.6 ESE 15 24 8 13 1011.0 1010.9 0.0
04/02:00pm 31.7 28.5 5.3 19 13.9 E 11 22 6 12 1011.5 1011.4 0.0
04/01:30pm 30.9 27.9 6.0 21 13.3 ESE 11 22 6 12 1011.9 1011.8 0.0
04/01:00pm 30.2 27.8 6.8 23 12.6 ESE 9 19 5 10 1012.4 1012.3 0.0
04/12:30pm 29.6 26.4 6.9 24 12.2 E 13 22 7 12 1013.0 1012.9 0.0
04/12:00pm 29.2 25.7 7.2 25 11.8 E 15 20 8 11 1013.5 1013.4 0.0
04/11:30am 28.3 24.9 9.1 30 10.6 E 17 26 9 14 1014.1 1014.0 0.0
04/11:00am 27.6 24.4 9.9 33 9.9 ESE 17 30 9 16 1014.6 1014.5 0.0
04/10:30am 26.7 23.4 9.5 34 9.5 E 17 22 9 12 1014.8 1014.7 0.0
04/10:00am 25.5 23.0 9.7 37 8.7 ENE 13 19 7 10 1015.3 1015.2 0.0
04/09:30am 24.8 22.4 9.9 39 8.2 E 13 19 7 10 1015.5 1015.4 0.0
04/09:00am 22.6 21.6 11.0 48 6.4 ESE 7 11 4 6 1015.6 1015.5 0.0
04/08:30am 20.4 19.8 11.6 57 4.9 E 6 7 3 4 1015.3 1015.2 0.0
04/08:00am 18.0 17.4 11.6 66 3.5 E 6 7 3 4 1015.0 1014.9 0.0
04/07:30am 14.1 13.6 10.9 81 1.7 E 4 6 2 3 1014.6 1014.5 0.0
04/07:00am 14.3 14.2 10.7 79 1.9 E 2 4 1 2 1014.4 1014.3 0.0
04/06:30am 15.1 15.0 10.7 75 2.3 SE 2 4 1 2 1014.2 1014.1 0.0
04/06:00am 16.1 16.3 10.4 69 3.0 CALM 0 0 0 0 1014.1 1014.0 0.0
04/05:30am 18.1 17.1 11.0 63 3.8 E 7 9 4 5 1014.0 1013.9 0.0
04/05:00am 16.1 15.3 11.7 75 2.4 E 7 17 4 9 1013.9 1013.8 0.0
04/04:30am 15.8 16.1 12.2 79 2.0 SE 2 4 1 2 1013.5 1013.4 0.0
04/04:00am 15.8 15.7 12.2 79 2.0 SSE 4 6 2 3 1013.5 1013.4 0.0
04/03:30am 16.1 16.8 12.1 77 2.2 CALM 0 2 0 1 1013.6 1013.5 0.0
04/03:00am 16.5 16.5 12.3 76 2.3 SSE 4 4 2 2 1013.8 1013.7 0.0
04/02:30am 16.7 16.7 12.5 76 2.3 SSE 4 4 2 2 1014.0 1013.9 0.0
04/02:00am 17.4 18.2 12.7 74 2.6 CALM 0 0 0 0 1014.0 1013.9 0.0
04/01:30am 17.7 18.6 12.8 73 2.7 CALM 0 0 0 0 1014.1 1014.0 0.0
04/01:00am 18.1 19.0 13.0 72 2.9 CALM 0 0 0 0 1014.1 1014.0 0.0
04/12:30am 18.5 19.6 13.4 72 2.9 CALM 0 0 0 0 1014.0 1013.9 0.0
04/12:00am 19.0 20.2 13.8 72 3.0 CALM 0 0 0 0 1014.0 1013.9 0.0
 
Date/Time
CST
Tmp

°C
App
Tmp
°C
Dew
Point
°C
Rel
Hum
%
Delta-T

°C
Wind Press
QNH
hPa
Press
MSL
hPa
Rain
since
9 am
mm
Dir
 
Spd
km/h
Gust
km/h
Spd
kts
Gust
kts
03/11:30pm 19.6 20.9 14.0 70 3.2 CALM 0 2 0 1 1014.1 1014.0 0.0
03/11:00pm 20.2 21.5 14.1 68 3.5 CALM 0 0 0 0 1014.3 1014.2 0.0
03/10:30pm 20.7 21.9 13.9 65 3.9 CALM 0 0 0 0 1014.3 1014.2 0.0
03/10:00pm 21.6 22.1 14.0 62 4.4 E 4 6 2 3 1014.0 1013.9 0.0
03/09:30pm 22.5 23.4 14.1 59 4.9 ESE 2 4 1 2 1013.8 1013.7 0.0
03/09:00pm 23.0 24.3 14.0 57 5.3 CALM 0 4 0 2 1013.6 1013.5 0.0
03/08:30pm 24.4 25.5 14.5 54 5.9 E 2 6 1 3 1013.3 1013.2 0.0
03/08:00pm 24.5 24.0 12.1 46 7.1 NE 6 9 3 5 1012.8 1012.7 0.0
03/07:30pm 26.1 25.3 11.1 39 8.5 S 6 7 3 4 1012.4 1012.3 0.0
03/07:00pm 27.6 26.6 10.3 34 9.7 SSE 6 6 3 3 1012.2 1012.1 0.0
03/06:30pm 29.1 27.9 10.3 31 10.6 SSE 7 9 4 5 1011.9 1011.8 0.0
03/06:00pm 30.7 28.6 9.6 27 11.9 SSE 11 15 6 8 1011.5 1011.4 0.0
03/05:30pm 31.6 29.4 9.2 25 12.6 SSE 11 19 6 10 1011.3 1011.2 0.0
03/05:00pm 32.4 29.6 8.6 23 13.3 SSE 13 20 7 11 1011.3 1011.2 0.0
03/04:30pm 32.0 30.1 8.9 24 13.0 SSE 9 17 5 9 1011.3 1011.2 0.0
03/04:00pm 32.6 30.2 10.0 25 12.9 SE 13 28 7 15 1011.3 1011.2 0.0
03/03:30pm 32.6 30.2 10.0 25 12.9 SE 13 24 7 13 1011.5 1011.4 0.0
03/03:00pm 32.5 30.4 11.1 27 12.5 E 13 19 7 10 1011.8 1011.7 0.0
03/02:30pm 32.2 29.8 11.4 28 12.2 ESE 15 26 8 14 1012.3 1012.2 0.0
03/02:00pm 31.7 28.8 11.0 28 12.0 ESE 17 26 9 14 1012.7 1012.6 0.0
03/01:30pm 32.1 30.2 11.8 29 11.9 ESE 13 22 7 12 1013.3 1013.2 0.0
03/01:00pm 31.3 28.4 12.2 31 11.3 SE 19 30 10 16 1013.9 1013.8 0.0
03/12:30pm 31.2 30.0 13.9 35 10.5 ESE 13 28 7 15 1014.3 1014.2 0.0
03/12:00pm 30.4 28.2 13.2 35 10.2 E 17 28 9 15 1015.0 1014.9 0.0
03/11:30am 29.4 27.3 13.6 38 9.4 E 17 28 9 15 1015.5 1015.4 0.0
03/11:00am 28.7 26.4 14.1 40 8.8 E 19 32 10 17 1015.8 1015.7 0.0
03/10:30am 27.9 26.1 14.5 44 8.1 ESE 17 28 9 15 1016.0 1015.9 0.0
03/10:00am 27.2 26.1 15.2 47 7.3 ESE 15 22 8 12 1016.1 1016.0 0.0
03/09:30am 25.7 25.2 14.8 51 6.5 SE 11 19 6 10 1016.3 1016.2 0.0
03/09:00am 24.7 24.7 15.1 55 5.8 SE 9 15 5 8 1016.3 1016.2 0.0
03/08:30am 22.8 23.7 16.6 68 3.8 SE 7 15 4 8 1016.3 1016.2 0.0
03/08:00am 20.9 23.5 17.5 81 2.1 CALM 0 4 0 2 1016.0 1015.9 0.0
03/07:30am 18.0 20.1 16.2 89 1.1 CALM 0 0 0 0 1015.6 1015.5 0.0
03/07:00am 17.7 19.6 15.7 88 1.2 CALM 0 0 0 0 1015.3 1015.2 0.0
03/06:30am 17.8 19.8 16.0 89 1.1 CALM 0 0 0 0 1015.1 1015.0 0.0
03/06:00am 18.0 19.3 16.2 89 1.1 SE 4 7 2 4 1014.9 1014.8 0.0
03/05:30am 18.5 20.5 16.1 86 1.4 CALM 0 0 0 0 1014.8 1014.7 0.0
03/05:00am 18.7 20.8 16.3 86 1.4 CALM 0 0 0 0 1014.6 1014.5 0.0
03/04:30am 18.8 20.8 16.0 84 1.7 CALM 0 0 0 0 1014.7 1014.6 0.0
03/04:00am 19.4 21.6 16.6 84 1.7 CALM 0 0 0 0 1014.8 1014.7 0.0
03/03:30am 19.4 21.5 16.2 82 1.9 CALM 0 0 0 0 1015.0 1014.9 0.0
03/03:00am 19.6 21.7 16.3 81 2.0 CALM 0 0 0 0 1015.0 1014.9 0.0
03/02:30am 20.1 21.9 16.5 80 2.2 E 2 7 1 4 1015.3 1015.2 0.0
03/02:00am 20.5 21.6 16.7 79 2.3 SSE 6 15 3 8 1015.3 1015.2 0.0
03/01:30am 20.9 22.3 16.5 76 2.7 S 4 7 2 4 1015.5 1015.4 0.0
03/01:00am 21.3 23.2 16.7 75 2.8 SW 2 4 1 2 1015.4 1015.3 0.0
03/12:30am 21.6 23.5 16.6 73 3.0 SSW 2 6 1 3 1015.5 1015.4 0.0
03/12:00am 21.0 22.3 16.2 74 2.9 SSW 4 7 2 4 1015.5 1015.4 0.0
 
Date/Time
CST
Tmp

°C
App
Tmp
°C
Dew
Point
°C
Rel
Hum
%
Delta-T

°C
Wind Press
QNH
hPa
Press
MSL
hPa
Rain
since
9 am
mm
Dir
 
Spd
km/h
Gust
km/h
Spd
kts
Gust
kts
02/11:30pm 21.6 23.6 15.9 70 3.4 CALM 0 0 0 0 1015.3 1015.2 0.0
02/11:00pm 21.8 23.8 16.1 70 3.4 CALM 0 0 0 0 1015.4 1015.3 0.0
02/10:30pm 21.9 23.8 15.7 68 3.7 CALM 0 2 0 1 1015.4 1015.3 0.0
02/10:00pm 23.1 24.2 15.7 63 4.5 ESE 4 4 2 2 1015.2 1015.1 0.0
02/09:30pm 23.6 25.4 15.4 60 4.9 CALM 0 0 0 0 1014.9 1014.8 0.0
02/09:00pm 24.4 25.8 15.3 57 5.5 NE 2 4 1 2 1014.7 1014.6 0.0
02/08:30pm 24.8 26.1 15.1 54 5.8 NNE 2 4 1 2 1014.4 1014.3 0.0
02/08:00pm 25.6 26.7 14.7 51 6.5 NNE 2 2 1 1 1014.1 1014.0 0.0
02/07:30pm 26.8 28.0 14.9 48 7.2 NNE 2 4 1 2 1013.7 1013.6 0.0
02/07:00pm 27.5 27.9 14.8 45 7.7 NNE 6 7 3 4 1013.4 1013.3 0.0
02/06:30pm 28.5 28.8 15.1 44 8.2 NNE 7 13 4 7 1012.9 1012.8 0.0
02/06:00pm 30.3 30.0 14.4 38 9.7 NE 9 15 5 8 1012.4 1012.3 0.0
02/05:30pm 32.2 30.3 11.9 29 12.0 E 13 20 7 11 1012.0 1011.9 0.0
02/05:00pm 33.0 31.6 12.1 28 12.4 E 11 19 6 10 1012.0 1011.9 0.0
02/04:30pm 33.1 30.4 11.6 27 12.6 E 17 30 9 16 1011.9 1011.8 0.0
02/04:00pm 33.4 31.7 12.4 28 12.5 E 13 24 7 13 1011.8 1011.7 0.0
02/03:30pm 33.5 30.7 12.5 28 12.5 ESE 19 28 10 15 1011.9 1011.8 0.0
02/03:00pm 33.1 31.6 13.2 30 12.0 E 13 22 7 12 1012.3 1012.2 0.0
02/02:30pm 32.4 29.6 12.6 30 11.8 ESE 19 28 10 15 1012.9 1012.8 0.0

Latest Capital City Observations: Canberra | Sydney | Melbourne | Brisbane | Adelaide | Perth | Hobart | Darwin

Other Formats:

Comma delimited format used in spreadsheet applications
http://www.bom.gov.au/fwo/IDD60901/IDD60901.94105.axf

JavaScript Object Notation format (JSON) in row-major order
http://www.bom.gov.au/fwo/IDD60901/IDD60901.94105.json